createdAt,value
2018-10-16T05:53:52.497Z,90.70
2018-10-16T05:54:40.702Z,91.20
2018-10-16T05:55:15.176Z,91.20
2018-10-16T05:55:48.505Z,91.20
2018-10-16T05:56:22.443Z,91.20
2018-10-16T05:56:56.388Z,91.30
2018-10-16T05:57:29.527Z,91.30
2018-10-16T05:58:02.943Z,91.30
2018-10-16T05:58:38.603Z,91.30
2018-10-16T05:59:16.055Z,91.30
2018-10-16T05:59:54.612Z,91.30
2018-10-16T06:00:29.705Z,91.30
2018-10-16T06:01:03.147Z,91.40
2018-10-16T06:01:36.367Z,91.60
2018-10-16T06:02:09.837Z,91.40
2018-10-16T06:02:43.039Z,91.50
2018-10-16T06:03:16.143Z,91.50
2018-10-16T06:03:49.529Z,91.40
2018-10-16T06:04:23.705Z,91.20
2018-10-16T06:04:56.972Z,91.70
2018-10-16T06:05:30.829Z,91.40
2018-10-16T06:06:04.081Z,91.50
2018-10-16T06:06:37.463Z,91.40
2018-10-16T06:07:11.460Z,91.30
2018-10-16T06:07:44.598Z,91.30
2018-10-16T06:08:18.474Z,91.30
2018-10-16T06:08:51.663Z,91.30
2018-10-16T06:09:24.785Z,91.30
2018-10-16T06:09:58.898Z,91.30
2018-10-16T06:10:32.076Z,91.30
2018-10-16T06:11:05.678Z,91.40
2018-10-16T06:11:39.125Z,91.50
2018-10-16T06:12:12.303Z,91.40
2018-10-16T06:12:45.421Z,91.30
2018-10-16T06:13:18.497Z,91.40
2018-10-16T06:13:51.629Z,91.40
2018-10-16T06:14:24.732Z,91.40
2018-10-16T06:14:57.809Z,91.30
2018-10-16T06:15:30.904Z,91.40
2018-10-16T06:16:04.474Z,91.30
2018-10-16T06:16:37.588Z,91.50
2018-10-16T06:17:11.919Z,91.20
2018-10-16T06:17:45.942Z,91.40
2018-10-16T06:18:20.166Z,91.90
2018-10-16T06:18:53.277Z,91.30
2018-10-16T06:19:26.411Z,91.30
2018-10-16T06:19:59.487Z,91.40
2018-10-16T06:20:32.805Z,91.30
2018-10-16T06:21:06.020Z,91.50
2018-10-16T06:21:40.919Z,91.40
2018-10-16T06:22:14.976Z,91.30
2018-10-16T06:22:48.154Z,91.30
2018-10-16T06:23:21.299Z,91.40
2018-10-16T06:23:54.564Z,91.30
2018-10-16T06:24:27.879Z,91.50
2018-10-16T06:25:01.841Z,91.30
2018-10-16T06:25:35.592Z,91.30
2018-10-16T06:26:09.559Z,91.40
2018-10-16T06:26:42.760Z,91.60
2018-10-16T06:27:16.561Z,91.30
2018-10-16T06:27:49.821Z,91.40
2018-10-16T06:28:23.066Z,91.50
2018-10-16T06:28:56.397Z,91.40
2018-10-16T06:29:30.484Z,91.60
2018-10-16T06:30:03.683Z,91.40
2018-10-16T06:30:36.765Z,91.50
2018-10-16T06:31:10.139Z,91.50
2018-10-16T06:31:44.003Z,91.50
2018-10-16T06:32:17.430Z,91.50
2018-10-16T06:32:50.612Z,91.60
2018-10-16T06:33:24.910Z,91.40
2018-10-16T06:34:00.141Z,91.50
2018-10-16T06:34:33.400Z,91.60
2018-10-16T06:35:06.810Z,91.70
2018-10-16T06:35:40.033Z,91.60
2018-10-16T06:36:13.508Z,91.50
2018-10-16T06:37:24.700Z,91.50
2018-10-16T06:37:57.981Z,91.60
2018-10-16T06:38:31.588Z,91.70
2018-10-16T06:39:06.656Z,91.60
2018-10-16T06:39:40.595Z,91.40
2018-10-16T06:40:13.957Z,91.70
2018-10-16T06:40:48.740Z,91.50
2018-10-16T06:41:23.544Z,91.50
2018-10-16T06:41:57.475Z,91.70
2018-10-16T06:42:32.901Z,91.60
2018-10-16T06:43:07.164Z,91.60
2018-10-16T06:43:40.423Z,91.80
2018-10-16T06:44:13.505Z,91.50
2018-10-16T06:44:46.902Z,91.60
2018-10-16T06:45:20.689Z,91.60
2018-10-16T06:45:54.508Z,91.70
2018-10-16T06:46:28.498Z,91.70
2018-10-16T06:47:01.486Z,91.70
2018-10-16T06:47:34.674Z,91.60
2018-10-16T06:48:07.848Z,91.70
2018-10-16T06:48:41.230Z,91.80
2018-10-16T06:49:14.867Z,91.70
2018-10-16T06:49:48.043Z,91.60
2018-10-16T06:50:21.122Z,91.70
2018-10-16T06:50:54.952Z,91.60
2018-10-16T06:51:28.054Z,91.70
2018-10-16T06:52:01.920Z,91.60
2018-10-16T06:52:35.045Z,91.70
2018-10-16T06:53:08.175Z,91.70
2018-10-16T06:53:41.223Z,91.70
2018-10-16T06:54:14.533Z,91.90
2018-10-16T06:54:47.918Z,91.80
2018-10-16T06:55:20.987Z,91.80
2018-10-16T06:55:55.071Z,91.70
2018-10-16T06:56:28.258Z,91.70
2018-10-16T06:57:01.583Z,91.80
2018-10-16T06:57:34.956Z,91.70
2018-10-16T06:58:08.235Z,91.80
2018-10-16T06:58:41.591Z,91.80
2018-10-16T06:59:16.622Z,91.70
2018-10-16T06:59:50.104Z,91.80
2018-10-16T07:00:23.570Z,91.60
2018-10-16T07:00:57.823Z,91.70
2018-10-16T07:01:31.194Z,92.10
2018-10-16T07:02:04.647Z,91.70
2018-10-16T07:02:38.075Z,91.80
2018-10-16T07:03:12.337Z,91.60
2018-10-16T07:03:46.405Z,91.80
2018-10-16T07:04:20.591Z,91.90
2018-10-16T07:04:55.080Z,92.10
2018-10-16T07:05:29.232Z,91.80
2018-10-16T07:06:03.159Z,91.80
2018-10-16T07:06:40.675Z,91.80
2018-10-16T07:08:04.762Z,91.90
2018-10-16T07:08:40.485Z,91.60
2018-10-16T07:09:15.016Z,91.70
2018-10-16T07:09:48.399Z,91.70
2018-10-16T07:10:21.963Z,91.80
2018-10-16T07:10:55.156Z,91.70
2018-10-16T07:11:29.725Z,91.80
2018-10-16T07:12:03.638Z,91.70
2018-10-16T07:12:37.571Z,91.60
2018-10-16T07:13:10.905Z,91.80
2018-10-16T07:13:44.906Z,91.50
2018-10-16T07:14:19.496Z,91.60
2018-10-16T07:14:56.074Z,91.50
2018-10-16T07:15:32.973Z,91.40
2018-10-16T07:16:06.336Z,91.50
2018-10-16T07:16:42.411Z,91.60
2018-10-16T07:17:17.031Z,91.50
2018-10-16T07:18:49.339Z,92.10
2018-10-16T07:19:25.510Z,92.90
2018-10-16T07:20:00.156Z,93.40
2018-10-16T07:20:34.298Z,92.70
2018-10-16T07:21:10.925Z,91.80
2018-10-16T07:23:14.371Z,92.20
2018-10-16T07:23:47.648Z,92.80
2018-10-16T07:24:23.886Z,93.30
2018-10-16T07:25:02.404Z,92.30
2018-10-16T07:25:40.453Z,91.60
2018-10-16T07:26:20.135Z,91.20
2018-10-16T07:26:57.331Z,91.10
2018-10-16T07:27:36.117Z,90.90
2018-10-16T07:28:16.529Z,91.00
2018-10-16T07:28:54.829Z,90.90
2018-10-16T07:29:29.660Z,90.90
2018-10-16T07:30:07.265Z,90.90
2018-10-16T07:30:43.371Z,91.00
2018-10-16T07:31:20.217Z,91.10
2018-10-16T07:31:58.663Z,90.80
2018-10-16T07:32:36.284Z,90.90
2018-10-16T07:34:26.385Z,91.60
2018-10-16T07:38:39.306Z,91.70
2018-10-16T19:07:51.140Z,78.60
2018-10-16T19:08:24.429Z,81.10
2018-10-16T19:08:57.678Z,81.00
2018-10-16T19:09:32.177Z,80.40
2018-10-16T19:10:05.332Z,79.70
2018-10-16T19:10:38.521Z,80.80
2018-10-16T19:11:11.689Z,81.20
2018-10-16T19:11:45.362Z,80.70
2018-10-16T19:12:19.405Z,80.50
2018-10-16T19:12:52.584Z,80.00
2018-10-16T19:13:25.754Z,81.20
2018-10-16T19:13:59.043Z,80.90
2018-10-16T19:14:32.547Z,81.20
2018-10-16T19:15:05.889Z,81.20
2018-10-16T19:15:39.028Z,80.40
2018-10-16T19:16:12.176Z,81.20
2018-10-16T19:16:45.393Z,81.00
2018-10-16T19:17:19.704Z,80.70
2018-10-16T19:17:53.077Z,81.00
2018-10-16T19:18:27.236Z,80.90
2018-10-16T19:19:01.459Z,81.20
2018-10-16T19:19:35.512Z,81.00
2018-10-16T19:20:08.950Z,80.70
2018-10-16T19:20:42.059Z,81.70
2018-10-16T19:21:15.488Z,81.20
2018-10-16T19:21:49.259Z,80.70
2018-10-16T19:22:22.941Z,82.10
2018-10-16T19:22:57.090Z,81.30
2018-10-16T19:23:31.325Z,81.00
2018-10-16T19:24:04.498Z,81.00
2018-10-16T19:24:37.617Z,80.40
2018-10-16T19:25:10.742Z,82.30
2018-10-16T19:25:43.976Z,80.90
2018-10-16T19:26:17.142Z,80.50
2018-10-16T19:26:50.321Z,81.60
2018-10-16T19:27:23.595Z,81.00
2018-10-16T19:27:56.871Z,81.00
2018-10-16T19:28:30.438Z,81.20
2018-10-16T19:29:03.553Z,81.10
2018-10-16T19:29:36.898Z,80.80
2018-10-16T19:30:11.164Z,81.10
2018-10-16T19:31:23.941Z,82.10
2018-10-16T19:31:57.103Z,81.50
2018-10-16T19:32:30.412Z,80.90
2018-10-16T19:33:03.656Z,80.60
2018-10-16T19:33:36.863Z,81.20
2018-10-16T19:34:12.074Z,81.00
2018-10-16T19:34:45.249Z,81.30
2018-10-16T19:35:19.274Z,81.20
2018-10-16T19:35:53.305Z,81.10
2018-10-16T19:36:26.814Z,81.60
2018-10-16T19:36:59.958Z,81.10
2018-10-16T19:37:33.186Z,81.20
2018-10-16T19:38:07.198Z,80.30
2018-10-16T19:38:40.367Z,82.40
2018-10-16T19:39:13.605Z,81.30
2018-10-16T19:39:46.899Z,81.80
2018-10-16T19:40:20.121Z,81.80
2018-10-16T19:41:32.847Z,81.30
2018-10-16T19:42:06.012Z,81.60
2018-10-16T19:42:39.133Z,81.30
2018-10-16T19:43:19.796Z,81.70
2018-10-16T19:44:01.786Z,80.70
2018-10-16T19:44:34.394Z,80.50
2018-10-16T19:45:09.464Z,81.00
2018-10-16T19:45:48.637Z,80.60
2018-10-16T19:46:22.814Z,81.60
2018-10-16T19:46:57.569Z,82.10
2018-10-16T19:47:31.651Z,82.70
2018-10-16T19:48:05.622Z,80.60
2018-10-16T19:48:43.214Z,81.50
2018-10-16T19:49:21.450Z,81.60
2018-10-16T19:49:56.881Z,81.20
2018-10-16T19:50:32.667Z,81.10
2018-10-16T19:51:12.799Z,82.20
2018-10-16T19:51:51.885Z,81.20
2018-10-16T19:52:26.964Z,81.00
2018-10-16T19:53:01.622Z,80.80
2018-10-16T19:53:36.421Z,82.20
2018-10-16T19:54:14.055Z,83.00
2018-10-16T19:54:47.496Z,81.40
2018-10-16T19:55:22.113Z,81.10
2018-10-16T19:55:57.945Z,81.20
2018-10-16T19:56:35.216Z,81.50
2018-10-16T19:57:09.929Z,81.10
2018-10-16T19:57:44.782Z,82.00
2018-10-16T19:59:00.696Z,82.60
2018-10-16T19:59:34.839Z,81.00
2018-10-16T20:00:08.598Z,82.10
2018-10-16T20:00:47.211Z,81.60
2018-10-16T20:01:26.510Z,81.90
2018-10-16T20:02:05.084Z,80.70
2018-10-16T20:02:40.603Z,81.00
2018-10-16T20:04:16.672Z,80.90
2018-10-16T20:04:51.410Z,80.80
2018-10-16T20:05:27.919Z,81.80
2018-10-16T20:06:02.128Z,81.80
2018-10-16T20:06:42.571Z,82.40
2018-10-16T20:07:31.566Z,81.50
2018-10-16T20:08:08.786Z,80.80
2018-10-16T20:08:52.693Z,82.00
2018-10-16T20:09:32.074Z,81.10
2018-10-16T20:10:06.883Z,80.80
2018-10-16T20:10:41.586Z,81.70
2018-10-16T20:11:16.673Z,81.00
2018-10-16T20:11:55.110Z,81.70
2018-10-16T20:12:29.937Z,80.90
2018-10-16T20:13:17.039Z,81.00
2018-10-16T20:13:52.497Z,81.50
2018-10-16T20:14:37.539Z,82.30
2018-10-16T20:15:14.649Z,80.40
2018-10-16T20:15:53.513Z,80.50
2018-10-16T20:16:32.042Z,80.80
2018-10-16T20:17:08.693Z,81.80
2018-10-16T20:18:32.965Z,81.40
2018-10-16T20:19:58.653Z,81.20
2018-10-16T20:20:36.513Z,81.30
2018-10-16T20:21:17.186Z,81.50
2018-10-16T20:21:52.248Z,81.70
2018-10-16T20:22:36.008Z,82.00
2018-10-16T20:23:14.317Z,80.70
2018-10-16T20:23:54.140Z,80.80
2018-10-16T20:25:07.965Z,81.30
2018-10-16T20:25:43.347Z,82.20
2018-10-16T20:26:22.358Z,80.80
2018-10-16T20:26:59.674Z,81.40
2018-10-16T20:27:35.147Z,80.90
2018-10-16T20:28:58.088Z,81.50
2018-10-16T20:29:48.746Z,81.10
2018-10-16T20:31:11.053Z,82.00
2018-10-16T20:31:49.820Z,81.20
2018-10-16T20:32:42.585Z,81.20
2018-10-16T20:33:22.521Z,81.20
2018-10-16T20:33:57.634Z,81.40
2018-10-16T20:34:35.585Z,81.50
2018-10-16T20:35:14.741Z,81.70
2018-10-16T20:35:48.026Z,82.00
2018-10-16T20:36:22.029Z,82.90
2018-10-16T20:37:04.346Z,81.60
2018-10-16T20:37:38.487Z,82.40
2018-10-16T20:38:17.440Z,82.80
2018-10-16T20:38:55.501Z,81.60
2018-10-16T20:40:15.653Z,82.70
2018-10-16T20:40:49.502Z,81.50
2018-10-16T20:41:27.778Z,82.30
2018-10-16T20:42:03.207Z,81.50
2018-10-16T20:42:38.067Z,81.40
2018-10-16T20:43:13.964Z,82.40
2018-10-16T20:43:53.055Z,82.20
2018-10-16T20:44:28.515Z,81.80
2018-10-16T20:45:03.856Z,81.60
2018-10-16T20:45:38.001Z,82.20
2018-10-16T20:46:23.629Z,83.10
2018-10-16T20:46:58.085Z,81.70
2018-10-16T20:47:32.745Z,82.90
2018-10-16T20:48:06.997Z,82.10
2018-10-16T20:48:43.172Z,82.80
2018-10-16T20:49:16.082Z,83.70
2018-10-16T20:49:49.562Z,83.50
2018-10-16T20:50:24.560Z,82.10
2018-10-16T20:50:58.882Z,83.00
2018-10-16T20:51:33.182Z,84.10
2018-10-16T20:52:07.284Z,83.50
2018-10-16T20:52:41.265Z,82.20
2018-10-16T20:53:14.966Z,83.10
2018-10-16T20:53:47.835Z,83.40
2018-10-16T20:54:22.994Z,83.40
2018-10-16T20:54:56.184Z,82.30
2018-10-16T20:55:30.334Z,83.30
2018-10-16T20:56:04.026Z,82.90
2018-10-16T20:56:37.943Z,83.90
2018-10-16T20:57:12.174Z,82.30
2018-10-16T20:57:45.487Z,82.50
2018-10-16T20:58:19.789Z,83.50
2018-10-16T20:58:54.965Z,82.40
2018-10-16T20:59:28.757Z,83.60
2018-10-16T21:00:01.716Z,83.70
2018-10-16T21:00:35.037Z,83.20
2018-10-16T21:01:08.209Z,83.60
2018-10-16T21:01:43.895Z,82.60
2018-10-16T21:02:18.012Z,83.00
2018-10-16T21:04:09.912Z,82.70
2018-10-16T21:04:44.353Z,83.50
2018-10-16T21:05:17.473Z,83.60
2018-10-16T21:05:50.939Z,83.70
2018-10-16T21:06:23.886Z,84.30
2018-10-16T21:07:00.407Z,83.40
2018-10-16T21:07:33.340Z,84.50
2018-10-16T21:08:06.324Z,83.90
2018-10-16T21:08:39.995Z,83.80
2018-10-16T21:09:14.927Z,84.50
2018-10-16T21:09:49.826Z,84.20
2018-10-16T21:10:23.463Z,83.90
2018-10-16T21:10:59.345Z,83.10
2018-10-16T21:11:32.159Z,84.70
2018-10-16T21:12:06.388Z,84.70
2018-10-16T21:12:39.860Z,83.60
2018-10-16T21:13:14.275Z,84.20
2018-10-16T21:13:49.177Z,83.30
2018-10-16T21:14:23.558Z,84.10
2018-10-16T21:14:58.450Z,83.80
2018-10-16T21:15:32.032Z,84.50
2018-10-16T21:16:07.774Z,84.30
2018-10-16T21:16:41.257Z,83.70
2018-10-16T21:17:14.524Z,83.20
2018-10-16T21:17:48.719Z,83.90
2018-10-16T21:18:21.973Z,84.40
2018-10-16T21:18:55.413Z,83.50
2018-10-16T21:19:30.901Z,84.00
2018-10-16T21:20:05.768Z,85.10
2018-10-16T21:20:39.363Z,83.50
2018-10-16T21:21:13.471Z,84.10
2018-10-16T21:21:48.465Z,84.10
2018-10-16T21:22:23.507Z,84.30
2018-10-16T21:22:59.047Z,83.10
2018-10-16T21:23:32.820Z,83.70
2018-10-16T21:24:05.877Z,83.80
2018-10-16T21:24:40.422Z,84.10
2018-10-16T21:25:13.620Z,84.30
2018-10-16T21:25:47.216Z,84.30
2018-10-16T21:26:20.718Z,85.10
2018-10-16T21:26:53.429Z,84.20
2018-10-16T21:27:26.197Z,84.90
2018-10-16T21:27:59.188Z,84.70
2018-10-16T21:28:35.232Z,85.30
2018-10-16T21:29:09.695Z,84.60
2018-10-16T21:29:43.029Z,84.50
2018-10-16T21:30:16.756Z,84.90
2018-10-16T21:30:49.535Z,85.00
2018-10-16T21:31:26.619Z,85.20
2018-10-16T21:31:59.364Z,84.50
2018-10-16T21:33:11.637Z,85.30
2018-10-16T21:33:44.657Z,84.90
2018-10-16T21:34:17.737Z,84.70
2018-10-16T21:34:50.838Z,84.50
2018-10-16T21:35:23.909Z,84.50
2018-10-16T21:35:56.948Z,85.20
2018-10-16T21:36:30.256Z,85.70
2018-10-16T21:37:03.320Z,85.10
2018-10-16T21:37:36.392Z,85.10
2018-10-16T21:38:09.493Z,85.30
2018-10-16T21:38:42.542Z,84.40
2018-10-16T21:39:15.675Z,86.00
2018-10-16T21:39:48.679Z,85.30
2018-10-16T21:40:21.717Z,85.10
2018-10-16T21:40:54.811Z,85.60
2018-10-16T21:41:28.622Z,84.60
2018-10-16T21:42:01.745Z,85.20
2018-10-16T21:42:34.818Z,87.00
2018-10-16T21:43:07.887Z,85.50
2018-10-16T21:43:40.931Z,85.40
2018-10-16T21:44:13.993Z,85.10
2018-10-16T21:44:47.076Z,85.90
2018-10-16T21:45:20.354Z,85.60
2018-10-16T21:45:53.433Z,85.60
2018-10-16T21:46:26.521Z,86.30
2018-10-16T21:46:59.649Z,85.30
2018-10-16T21:47:32.619Z,85.20
2018-10-16T21:48:05.686Z,85.60
2018-10-16T21:48:38.765Z,86.10
2018-10-16T21:49:12.738Z,85.30
2018-10-16T21:49:45.628Z,85.80
2018-10-16T21:50:18.683Z,86.40
2018-10-16T21:50:51.744Z,86.10
2018-10-16T21:51:24.800Z,86.30
2018-10-16T21:51:57.891Z,86.20
2018-10-16T21:52:30.976Z,86.40
2018-10-16T21:53:04.109Z,87.00
2018-10-16T21:53:37.124Z,86.30
2018-10-16T21:54:10.175Z,86.10
2018-10-16T21:54:43.221Z,86.50
2018-10-16T21:55:16.350Z,86.50
2018-10-16T21:55:49.604Z,86.20
2018-10-16T21:56:22.674Z,86.70
2018-10-16T21:56:55.728Z,86.40
2018-10-16T21:57:28.795Z,86.30
2018-10-16T21:58:02.637Z,86.00
2018-10-16T21:58:35.665Z,86.10
2018-10-16T21:59:09.525Z,86.00
2018-10-16T21:59:42.551Z,86.80
2018-10-16T22:00:15.307Z,86.50
2018-10-16T22:00:48.323Z,86.90
2018-10-16T22:01:22.096Z,86.10
2018-10-16T22:01:55.123Z,86.60
2018-10-16T22:02:28.920Z,86.40
2018-10-16T22:03:02.739Z,86.30
2018-10-16T22:03:35.785Z,86.10
2018-10-16T22:04:08.822Z,86.10
2018-10-16T22:04:41.877Z,86.00
2018-10-16T22:05:14.989Z,86.10
2018-10-16T22:05:47.631Z,86.20
2018-10-16T22:06:20.192Z,86.20
2018-10-16T22:06:52.727Z,86.30
2018-10-16T22:07:25.972Z,86.50
2018-10-16T22:07:58.675Z,86.50
2018-10-16T22:08:31.680Z,86.40
2018-10-16T22:09:04.290Z,86.40
2018-10-16T22:09:37.191Z,86.30
2018-10-16T22:10:10.462Z,87.60
2018-10-16T22:10:43.235Z,87.40
2018-10-16T22:11:15.826Z,88.00
2018-10-16T22:11:48.445Z,87.60
2018-10-16T22:12:21.848Z,87.90
2018-10-16T22:12:54.772Z,87.70
2018-10-16T22:13:27.367Z,87.50
2018-10-16T22:14:00.265Z,88.00
2018-10-16T22:14:34.323Z,87.40
2018-10-16T22:15:06.990Z,87.30
2018-10-16T22:15:39.579Z,87.90
2018-10-16T22:16:12.498Z,87.30
2018-10-16T22:16:45.246Z,87.90
2018-10-16T22:17:18.883Z,88.00
2018-10-16T22:17:52.347Z,87.90
2018-10-16T22:18:26.305Z,87.80
2018-10-16T22:19:00.437Z,86.50
2018-10-16T22:19:33.063Z,87.10
2018-10-16T22:20:05.749Z,87.20
2018-10-16T22:20:39.232Z,87.60
2018-10-16T22:21:12.617Z,87.20
2018-10-16T22:21:45.379Z,87.70
2018-10-16T22:22:18.228Z,87.40
2018-10-16T22:22:50.909Z,87.80
2018-10-16T22:23:23.500Z,87.90
2018-10-16T22:23:56.477Z,87.70
2018-10-16T22:24:29.160Z,87.50
2018-10-16T22:25:01.816Z,87.90
2018-10-16T22:25:34.367Z,88.00
2018-10-16T22:26:07.441Z,87.70
2018-10-16T22:26:41.021Z,88.10
2018-10-16T22:27:13.794Z,87.80
2018-10-16T22:27:46.495Z,87.30
2018-10-16T22:28:19.188Z,87.60
2018-10-16T22:28:52.009Z,88.10
2018-10-16T22:29:24.664Z,88.40
2018-10-16T22:29:57.182Z,87.90
2018-10-16T22:30:29.822Z,88.00
2018-10-16T22:31:02.863Z,87.60
2018-10-16T22:31:35.514Z,87.80
2018-10-16T22:32:08.659Z,88.20
2018-10-16T22:32:41.304Z,88.20
2018-10-16T22:33:13.906Z,88.20
2018-10-16T22:33:46.536Z,87.80
2018-10-16T22:34:19.491Z,88.10
2018-10-16T22:34:52.222Z,87.70
2018-10-16T22:35:24.762Z,88.10
2018-10-16T22:35:57.343Z,88.60
2018-10-16T22:36:29.988Z,87.80
2018-10-16T22:37:02.669Z,88.20
2018-10-16T22:37:35.178Z,88.60
2018-10-16T22:38:07.719Z,88.40
2018-10-16T22:38:40.279Z,88.00
2018-10-16T22:39:12.833Z,87.70
2018-10-16T22:39:45.405Z,88.40
2018-10-16T22:40:17.943Z,88.10
2018-10-16T22:40:50.588Z,88.70
2018-10-16T22:41:23.174Z,88.30
2018-10-16T22:41:55.726Z,88.60
2018-10-16T22:42:28.376Z,87.50
2018-10-16T22:43:00.969Z,88.10
2018-10-16T22:43:33.584Z,89.00
2018-10-16T22:44:06.116Z,88.10
2018-10-16T22:44:38.700Z,87.80
2018-10-16T22:45:11.253Z,88.30
2018-10-16T22:45:43.932Z,87.30
2018-10-16T22:46:16.470Z,88.30
2018-10-16T22:46:49.014Z,87.90
2018-10-16T22:47:21.543Z,87.90
2018-10-16T22:47:54.083Z,88.50
2018-10-16T22:48:26.605Z,88.50
2018-10-16T22:48:59.169Z,88.80
2018-10-16T22:49:31.950Z,87.80
2018-10-16T22:50:04.467Z,88.30
2018-10-16T22:50:37.022Z,87.80
2018-10-16T22:51:09.544Z,88.20
2018-10-16T22:51:42.117Z,88.20
2018-10-16T22:52:14.651Z,89.00
2018-10-16T22:52:47.616Z,88.20
2018-10-16T22:53:20.677Z,87.90
2018-10-16T22:53:53.713Z,87.50
2018-10-16T22:54:26.360Z,87.60
2018-10-16T22:54:58.945Z,87.80
2018-10-16T22:55:31.454Z,88.20
2018-10-16T22:56:04.206Z,88.20
2018-10-16T22:56:36.767Z,88.10
2018-10-16T22:57:09.305Z,88.30
2018-10-16T22:57:41.816Z,88.70
2018-10-16T22:58:14.358Z,88.20
2018-10-16T22:58:46.903Z,88.20
2018-10-16T22:59:19.421Z,88.00
2018-10-16T22:59:51.984Z,88.40
2018-10-16T23:00:24.515Z,89.40
2018-10-16T23:00:57.075Z,88.60
2018-10-16T23:01:29.622Z,88.80
2018-10-16T23:02:02.122Z,88.70
2018-10-16T23:02:34.662Z,88.50
2018-10-16T23:03:07.188Z,88.50
2018-10-16T23:03:39.712Z,88.30
2018-10-16T23:04:12.242Z,88.20
2018-10-16T23:04:44.770Z,88.20
2018-10-16T23:05:17.425Z,88.40
2018-10-16T23:05:49.848Z,88.20
2018-10-16T23:06:22.369Z,88.20
2018-10-16T23:06:55.705Z,87.60
2018-10-16T23:07:28.244Z,88.10
2018-10-16T23:08:00.790Z,87.90
2018-10-16T23:08:33.335Z,88.10
2018-10-16T23:09:06.056Z,88.00
2018-10-16T23:09:38.567Z,88.60
2018-10-16T23:10:11.129Z,88.50
2018-10-16T23:10:43.668Z,88.60
2018-10-16T23:11:16.261Z,89.00
2018-10-16T23:11:48.818Z,88.10
2018-10-16T23:12:21.561Z,88.50
2018-10-16T23:12:54.334Z,88.70
2018-10-16T23:13:26.863Z,88.10
2018-10-16T23:13:59.400Z,88.40
2018-10-16T23:14:31.923Z,88.20
2018-10-16T23:15:04.483Z,88.30
2018-10-16T23:15:37.001Z,88.10
2018-10-16T23:16:09.531Z,88.00
2018-10-16T23:16:42.049Z,87.80
2018-10-16T23:17:14.636Z,87.80
2018-10-16T23:17:47.148Z,88.10
2018-10-16T23:18:19.673Z,88.20
2018-10-16T23:18:52.233Z,88.00
2018-10-16T23:19:24.767Z,88.00
2018-10-16T23:19:57.317Z,88.20
2018-10-16T23:20:29.888Z,87.80
2018-10-16T23:21:02.397Z,89.00
2018-10-16T23:21:34.938Z,88.30
2018-10-16T23:22:07.467Z,88.00
2018-10-16T23:22:40.015Z,88.20
2018-10-16T23:23:12.677Z,88.20
2018-10-16T23:23:45.154Z,88.10
2018-10-16T23:24:17.677Z,88.30
2018-10-16T23:24:50.981Z,87.80
2018-10-16T23:25:23.509Z,88.50
2018-10-16T23:25:56.024Z,88.00
2018-10-16T23:26:28.659Z,88.20
2018-10-16T23:27:01.971Z,87.70
2018-10-16T23:29:09.648Z,88.00
2018-10-16T23:29:42.096Z,87.90
2018-10-16T23:30:15.543Z,88.60
2018-10-16T23:30:48.076Z,88.00
2018-10-16T23:31:20.603Z,88.10
2018-10-16T23:31:53.905Z,87.80
2018-10-16T23:32:26.457Z,88.10
2018-10-16T23:32:59.359Z,88.00
2018-10-16T23:33:31.862Z,88.10
2018-10-16T23:34:04.387Z,88.40
2018-10-16T23:34:36.915Z,88.20
2018-10-16T23:35:09.501Z,88.30
2018-10-16T23:35:41.986Z,88.30
2018-10-16T23:36:54.178Z,87.80
2018-10-16T23:37:27.441Z,87.80
2018-10-16T23:37:59.968Z,88.30
2018-10-16T23:38:32.498Z,88.20
2018-10-16T23:39:05.123Z,88.30
2018-10-16T23:39:37.666Z,87.90
2018-10-16T23:40:10.215Z,88.20
2018-10-16T23:40:42.736Z,88.30
2018-10-16T23:41:15.361Z,88.40
2018-10-16T23:41:47.786Z,88.30
2018-10-16T23:42:20.323Z,88.20
2018-10-16T23:42:52.868Z,88.00
2018-10-16T23:43:26.187Z,87.90
2018-10-16T23:43:58.661Z,87.90
2018-10-16T23:44:31.178Z,88.00
2018-10-16T23:45:03.711Z,88.20
2018-10-16T23:45:37.076Z,87.60
2018-10-16T23:46:09.536Z,87.90
2018-10-16T23:46:42.837Z,87.50
2018-10-16T23:47:15.371Z,87.90
2018-10-16T23:47:47.889Z,88.00
2018-10-16T23:48:20.399Z,88.00
2018-10-16T23:48:52.914Z,88.00
2018-10-16T23:49:25.435Z,88.10
2018-10-16T23:49:58.730Z,87.50
2018-10-16T23:50:31.245Z,87.70
2018-10-16T23:51:03.766Z,87.90
2018-10-16T23:51:36.303Z,87.70
2018-10-16T23:52:09.594Z,87.60
2018-10-16T23:52:42.133Z,88.10
2018-10-16T23:53:14.769Z,87.90
2018-10-16T23:53:47.420Z,88.20
2018-10-16T23:54:19.975Z,88.00
2018-10-16T23:54:52.509Z,87.90
2018-10-16T23:55:25.004Z,87.80
2018-10-16T23:55:57.505Z,88.00
2018-10-16T23:56:30.020Z,88.20
2018-10-16T23:57:02.556Z,88.20
2018-10-16T23:57:35.052Z,88.00
2018-10-16T23:58:07.571Z,87.90
2018-10-16T23:58:40.109Z,87.90
2018-10-16T23:59:51.485Z,88.30
